createdAt,value
2023-05-23T00:00:02.046Z,10.75
2023-05-23T00:02:29.409Z,11.18
2023-05-23T00:04:58.714Z,12.13
2023-05-23T00:07:26.602Z,12.23
2023-05-23T00:09:53.306Z,12.43
2023-05-23T00:12:20.616Z,12.25
2023-05-23T00:14:47.930Z,11.20
2023-05-23T00:17:14.672Z,12.25
2023-05-23T00:22:18.790Z,13.57
2023-05-23T00:24:45.652Z,13.18
2023-05-23T00:27:12.318Z,12.65
2023-05-23T00:29:39.100Z,15.43
2023-05-23T00:32:05.869Z,15.70
2023-05-23T00:34:32.576Z,14.55
2023-05-23T00:37:00.031Z,14.52
2023-05-23T00:39:26.686Z,14.25
2023-05-23T00:41:53.472Z,14.50
2023-05-23T00:44:21.893Z,14.43
2023-05-23T00:46:55.541Z,14.75
2023-05-23T00:49:22.591Z,14.70
2023-05-23T00:51:52.382Z,14.45
2023-05-23T00:54:24.628Z,14.85
2023-05-23T00:56:51.591Z,14.52
2023-05-23T00:59:18.376Z,14.43
2023-05-23T01:01:47.586Z,16.48
2023-05-23T01:04:17.003Z,15.38
2023-05-23T01:06:47.315Z,16.23
2023-05-23T01:09:16.198Z,16.80
2023-05-23T01:12:36.093Z,17.27
2023-05-23T01:15:12.736Z,17.33
2023-05-23T01:20:26.204Z,18.85
2023-05-23T01:23:01.772Z,19.85
2023-05-23T01:25:43.440Z,21.45
2023-05-23T01:28:15.321Z,21.58
2023-05-23T01:30:44.958Z,21.45
2023-05-23T01:33:14.277Z,20.08
2023-05-23T01:35:43.982Z,20.25
2023-05-23T01:38:10.783Z,19.15
2023-05-23T01:40:38.438Z,21.25
2023-05-23T01:43:05.191Z,22.30
2023-05-23T01:45:32.211Z,17.52
2023-05-23T01:47:59.444Z,20.48
2023-05-23T01:50:27.076Z,18.35
2023-05-23T01:52:54.423Z,15.35
2023-05-23T01:55:26.713Z,14.30
2023-05-23T01:57:57.774Z,15.50
2023-05-23T02:03:03.124Z,16.58
2023-05-23T02:05:30.665Z,16.02
2023-05-23T02:07:57.428Z,17.98
2023-05-23T02:10:24.147Z,18.52
2023-05-23T02:12:50.879Z,18.55
2023-05-23T02:15:17.772Z,19.30
2023-05-23T02:17:44.573Z,20.13
2023-05-23T02:20:11.554Z,20.73
2023-05-23T02:22:39.124Z,19.48
2023-05-23T02:25:06.575Z,16.83
2023-05-23T02:27:33.267Z,17.25
2023-05-23T02:29:59.942Z,18.25
2023-05-23T02:32:26.670Z,20.20
2023-05-23T02:37:27.740Z,18.05
2023-05-23T02:39:54.470Z,18.70
2023-05-23T02:42:21.136Z,19.13
2023-05-23T02:44:48.119Z,19.65
2023-05-23T02:47:14.808Z,20.00
2023-05-23T02:49:41.490Z,20.98
2023-05-23T02:52:08.217Z,20.38
2023-05-23T02:54:34.905Z,22.67
2023-05-23T02:57:01.692Z,25.25
2023-05-23T02:59:28.439Z,27.40
2023-05-23T03:01:55.200Z,27.77
2023-05-23T03:04:21.956Z,31.13
2023-05-23T03:06:48.892Z,30.23
2023-05-23T03:09:19.475Z,31.25
2023-05-23T03:11:46.726Z,32.08
2023-05-23T03:14:13.667Z,31.33
2023-05-23T03:16:40.865Z,31.95
2023-05-23T03:19:07.938Z,33.22
2023-05-23T03:21:35.917Z,30.80
2023-05-23T03:24:02.793Z,32.92
2023-05-23T03:26:29.770Z,33.90
2023-05-23T03:28:56.915Z,32.97
2023-05-23T03:31:23.942Z,32.38
2023-05-23T03:33:51.063Z,32.47
2023-05-23T03:36:17.988Z,33.47
2023-05-23T03:38:44.901Z,32.60
2023-05-23T03:41:11.817Z,32.53
2023-05-23T03:43:38.671Z,33.35
2023-05-23T03:46:05.658Z,33.30
2023-05-23T03:48:32.569Z,33.72
2023-05-23T03:53:34.352Z,32.63
2023-05-23T03:56:02.130Z,32.28
2023-05-23T03:58:28.948Z,32.05
2023-05-23T04:00:55.883Z,33.13
2023-05-23T04:03:23.078Z,31.17
2023-05-23T04:05:50.406Z,32.58
2023-05-23T04:08:17.853Z,32.42
2023-05-23T04:10:44.702Z,33.03
2023-05-23T04:13:11.596Z,31.73
2023-05-23T04:18:11.256Z,31.20
2023-05-23T04:20:38.153Z,32.30
2023-05-23T04:23:04.923Z,32.92
2023-05-23T04:25:31.585Z,32.92
2023-05-23T04:27:58.282Z,33.22
2023-05-23T04:30:25.011Z,32.65
2023-05-23T04:32:52.430Z,31.15
2023-05-23T04:35:19.149Z,33.40
2023-05-23T04:37:45.807Z,32.75
2023-05-23T04:40:13.698Z,32.97
2023-05-23T04:42:42.663Z,31.30
2023-05-23T04:45:10.204Z,32.38
2023-05-23T04:47:37.713Z,29.30
2023-05-23T04:50:05.758Z,39.85
2023-05-23T04:52:34.385Z,29.45
2023-05-23T04:55:01.584Z,30.05
2023-05-23T04:57:28.672Z,32.38
2023-05-23T04:59:55.537Z,32.45
2023-05-23T05:02:22.285Z,29.50
2023-05-23T05:07:26.797Z,29.10
2023-05-23T05:09:53.476Z,29.35
2023-05-23T05:12:20.175Z,29.83
2023-05-23T05:14:46.858Z,27.80
2023-05-23T05:17:13.635Z,29.15
2023-05-23T05:19:40.478Z,28.45
2023-05-23T05:22:08.263Z,28.02
2023-05-23T05:24:34.995Z,28.20
2023-05-23T05:27:01.825Z,28.27
2023-05-23T05:29:29.051Z,29.20
2023-05-23T05:31:55.866Z,28.58
2023-05-23T05:34:23.111Z,28.08
2023-05-23T05:36:49.933Z,28.98
2023-05-23T05:39:17.166Z,33.58
2023-05-23T05:41:43.872Z,28.67
2023-05-23T05:44:10.702Z,32.72
2023-05-23T05:49:14.493Z,28.08
2023-05-23T05:51:41.141Z,26.85
2023-05-23T05:54:08.042Z,27.00
2023-05-23T05:56:34.829Z,26.50
2023-05-23T05:59:01.529Z,28.23
2023-05-23T06:01:28.217Z,26.52
2023-05-23T06:03:55.128Z,26.80
2023-05-23T06:06:22.778Z,26.55
2023-05-23T06:08:49.449Z,27.38
2023-05-23T06:11:16.204Z,26.15
2023-05-23T06:13:42.977Z,25.48
2023-05-23T06:16:09.716Z,25.88
2023-05-23T06:18:36.424Z,24.90
2023-05-23T06:21:03.200Z,24.55
2023-05-23T06:23:29.899Z,25.63
2023-05-23T06:25:56.650Z,25.02
2023-05-23T06:28:23.337Z,25.27
2023-05-23T06:30:50.051Z,24.08
2023-05-23T06:33:16.883Z,23.90
2023-05-23T06:35:43.706Z,23.90
2023-05-23T06:38:10.408Z,23.60
2023-05-23T06:40:37.163Z,23.48
2023-05-23T06:43:03.850Z,24.05
2023-05-23T06:45:30.500Z,23.73
2023-05-23T06:47:57.319Z,23.50
2023-05-23T06:52:55.280Z,23.13
2023-05-23T06:55:23.033Z,24.23
2023-05-23T06:57:52.805Z,23.48
2023-05-23T07:00:19.895Z,23.10
2023-05-23T07:02:48.915Z,23.50
2023-05-23T07:05:16.478Z,23.73
2023-05-23T07:07:43.837Z,24.52
2023-05-23T07:10:11.124Z,22.17
2023-05-23T07:12:38.005Z,22.95
2023-05-23T07:15:05.135Z,23.17
2023-05-23T07:17:31.884Z,23.60
2023-05-23T07:19:58.659Z,22.27
2023-05-23T07:22:25.366Z,22.40
2023-05-23T07:24:52.006Z,23.15
2023-05-23T07:27:18.675Z,22.98
2023-05-23T07:29:45.456Z,23.60
2023-05-23T07:32:12.126Z,23.95
2023-05-23T07:37:16.533Z,23.15
2023-05-23T07:39:43.260Z,22.70
2023-05-23T07:42:09.946Z,21.08
2023-05-23T07:44:36.864Z,20.90
2023-05-23T07:47:03.748Z,20.42
2023-05-23T07:49:30.603Z,19.67
2023-05-23T07:51:58.123Z,18.85
2023-05-23T07:54:24.948Z,18.90
2023-05-23T07:56:53.335Z,17.45
2023-05-23T07:59:20.218Z,18.08
2023-05-23T08:01:46.945Z,16.73
2023-05-23T08:04:13.843Z,16.60
2023-05-23T08:06:45.765Z,16.75
2023-05-23T08:09:18.707Z,15.65
2023-05-23T08:11:45.520Z,16.75
2023-05-23T08:14:12.183Z,16.10
2023-05-23T08:16:39.238Z,15.57
2023-05-23T08:19:06.436Z,16.23
2023-05-23T08:21:33.671Z,16.27
2023-05-23T08:24:00.472Z,16.42
2023-05-23T08:26:28.207Z,16.25
2023-05-23T08:28:54.977Z,14.95
2023-05-23T08:31:22.224Z,15.43
2023-05-23T08:33:48.951Z,15.30
2023-05-23T08:36:15.765Z,14.68
2023-05-23T08:38:42.465Z,15.45
2023-05-23T08:41:19.046Z,14.15
2023-05-23T08:43:45.898Z,13.32
2023-05-23T08:46:13.841Z,13.45
2023-05-23T08:48:43.076Z,13.70
2023-05-23T08:51:14.488Z,14.55
2023-05-23T08:53:47.250Z,13.52
2023-05-23T08:56:14.391Z,13.23
2023-05-23T08:58:44.712Z,13.43
2023-05-23T09:01:13.742Z,13.02
2023-05-23T09:03:42.736Z,12.52
2023-05-23T09:06:11.120Z,12.48
2023-05-23T09:08:38.162Z,12.35
2023-05-23T09:11:07.125Z,12.18
2023-05-23T09:13:34.392Z,12.63
2023-05-23T09:16:05.329Z,12.13
2023-05-23T09:18:37.670Z,12.70
2023-05-23T09:21:05.358Z,12.45
2023-05-23T09:23:33.208Z,11.98
2023-05-23T09:26:04.765Z,12.13
2023-05-23T09:28:35.121Z,11.38
2023-05-23T09:31:03.604Z,11.60
2023-05-23T09:33:53.135Z,11.00
2023-05-23T09:36:19.897Z,11.88
2023-05-23T09:41:25.424Z,11.65
2023-05-23T09:43:53.734Z,11.25
2023-05-23T09:49:00.528Z,11.02
2023-05-23T09:51:28.499Z,10.52
2023-05-23T09:53:57.163Z,10.93
2023-05-23T09:56:25.102Z,10.55
2023-05-23T09:58:52.400Z,11.60
2023-05-23T10:01:19.983Z,10.27
2023-05-23T10:03:51.181Z,11.35
2023-05-23T10:06:35.221Z,10.82
2023-05-23T10:09:06.278Z,10.60
2023-05-23T10:11:35.682Z,10.68
2023-05-23T10:16:42.747Z,10.38
2023-05-23T10:19:21.098Z,9.88
2023-05-23T10:21:51.578Z,10.18
2023-05-23T10:24:19.056Z,10.30
2023-05-23T10:26:46.262Z,10.38
2023-05-23T10:29:12.948Z,10.15
2023-05-23T10:31:41.049Z,10.50
2023-05-23T10:34:40.825Z,10.82
2023-05-23T10:37:08.550Z,10.00
2023-05-23T10:40:00.388Z,9.27
2023-05-23T10:42:39.768Z,9.93
2023-05-23T10:48:00.529Z,9.60
2023-05-23T10:50:33.658Z,10.07
2023-05-23T10:53:05.294Z,8.57
2023-05-23T10:55:37.107Z,9.18
2023-05-23T10:58:17.875Z,9.15
2023-05-23T11:00:54.724Z,9.00
2023-05-23T11:03:43.904Z,8.55
2023-05-23T11:06:28.363Z,8.13
2023-05-23T11:09:06.316Z,8.88
2023-05-23T11:12:06.170Z,7.95
2023-05-23T11:14:33.727Z,7.90
2023-05-23T11:17:12.565Z,8.10
2023-05-23T11:19:40.125Z,7.63
2023-05-23T11:22:10.322Z,7.25
2023-05-23T11:24:53.678Z,7.43
2023-05-23T11:27:34.965Z,7.32
2023-05-23T11:30:10.239Z,7.25
2023-05-23T11:32:37.759Z,6.70
2023-05-23T11:35:07.206Z,7.10
2023-05-23T11:37:34.813Z,6.60
2023-05-23T11:40:27.429Z,6.55
2023-05-23T11:42:54.972Z,6.32
2023-05-23T11:45:22.977Z,7.05
2023-05-23T11:47:49.898Z,11.27
2023-05-23T11:50:17.034Z,10.68
2023-05-23T11:52:43.982Z,6.30
2023-05-23T11:55:11.029Z,6.38
2023-05-23T11:57:41.478Z,5.93
2023-05-23T12:00:09.113Z,5.80
2023-05-23T12:02:40.918Z,5.65
2023-05-23T12:05:13.988Z,4.90
2023-05-23T12:07:42.278Z,5.53
2023-05-23T12:10:12.152Z,5.40
2023-05-23T12:12:39.020Z,5.85
2023-05-23T12:15:06.261Z,5.75
2023-05-23T12:17:33.459Z,5.57
2023-05-23T12:20:00.641Z,5.07
2023-05-23T12:22:28.729Z,4.93
2023-05-23T12:24:56.811Z,5.32
2023-05-23T12:27:30.666Z,5.43
2023-05-23T12:30:29.900Z,5.60
2023-05-23T12:32:56.634Z,5.35
2023-05-23T12:35:26.135Z,5.10
2023-05-23T12:37:55.075Z,5.20
2023-05-23T12:40:22.081Z,5.20
2023-05-23T12:42:53.322Z,4.90
2023-05-23T12:45:34.113Z,5.22
2023-05-23T12:48:02.425Z,5.03
2023-05-23T12:50:29.514Z,4.72
2023-05-23T12:52:56.274Z,4.70
2023-05-23T12:55:23.018Z,4.72
2023-05-23T12:57:49.772Z,4.50
2023-05-23T13:00:16.874Z,4.30
2023-05-23T13:02:43.745Z,4.35
2023-05-23T13:05:10.549Z,4.53
2023-05-23T13:07:38.118Z,4.63
2023-05-23T13:10:05.252Z,4.60
2023-05-23T13:12:33.160Z,3.92
2023-05-23T13:14:59.967Z,4.07
2023-05-23T13:17:26.751Z,4.28
2023-05-23T13:19:53.499Z,4.35
2023-05-23T13:22:20.235Z,3.97
2023-05-23T13:27:19.871Z,3.53
2023-05-23T13:29:46.564Z,3.83
2023-05-23T13:34:51.569Z,3.67
2023-05-23T13:37:18.562Z,3.45
2023-05-23T13:39:45.382Z,3.50
2023-05-23T13:42:12.146Z,3.67
2023-05-23T13:44:38.902Z,3.80
2023-05-23T13:47:15.759Z,3.90
2023-05-23T13:49:43.274Z,3.67
2023-05-23T13:52:10.033Z,3.70
2023-05-23T13:54:36.738Z,3.70
2023-05-23T13:57:03.704Z,3.28
2023-05-23T13:59:30.598Z,3.20
2023-05-23T14:01:57.502Z,3.08
2023-05-23T14:04:24.303Z,3.08
2023-05-23T14:09:24.215Z,3.40
2023-05-23T14:11:52.542Z,2.97
2023-05-23T14:14:19.329Z,3.30
2023-05-23T14:16:46.328Z,3.25
2023-05-23T14:19:13.195Z,3.20
2023-05-23T14:21:40.034Z,3.50
2023-05-23T14:24:06.796Z,3.50
2023-05-23T14:26:33.484Z,3.00
2023-05-23T14:29:00.191Z,2.88
2023-05-23T14:31:26.992Z,3.30
2023-05-23T14:33:53.774Z,2.90
2023-05-23T14:36:20.549Z,2.90
2023-05-23T14:38:47.295Z,2.90
2023-05-23T14:41:14.396Z,2.60
2023-05-23T14:43:41.293Z,2.72
2023-05-23T14:48:46.426Z,3.00
2023-05-23T14:51:21.472Z,2.53
2023-05-23T14:53:53.968Z,2.72
2023-05-23T14:56:20.890Z,2.40
2023-05-23T14:58:47.761Z,2.70
2023-05-23T15:01:14.696Z,2.90
2023-05-23T15:03:41.700Z,2.90
2023-05-23T15:06:08.911Z,2.50
2023-05-23T15:08:36.010Z,3.10
2023-05-23T15:11:02.890Z,2.90
2023-05-23T15:16:01.744Z,2.80
2023-05-23T15:18:39.869Z,2.42
2023-05-23T15:21:08.117Z,2.63
2023-05-23T15:23:34.838Z,2.60
2023-05-23T15:26:01.597Z,2.80
2023-05-23T15:28:28.308Z,2.70
2023-05-23T15:30:57.262Z,2.63
2023-05-23T15:33:24.084Z,3.05
2023-05-23T15:35:51.439Z,2.75
2023-05-23T15:38:20.065Z,5.03
2023-05-23T15:40:49.076Z,10.40
2023-05-23T15:43:15.909Z,5.70
2023-05-23T15:45:42.769Z,2.70
2023-05-23T15:50:42.086Z,2.95
2023-05-23T15:53:09.161Z,2.47
2023-05-23T15:55:37.187Z,3.03
2023-05-23T15:58:05.308Z,3.72
2023-05-23T16:00:32.124Z,2.72
2023-05-23T16:02:59.035Z,2.53
2023-05-23T16:05:26.162Z,3.20
2023-05-23T16:07:52.859Z,3.17
2023-05-23T16:10:20.104Z,2.65
2023-05-23T16:12:46.788Z,2.80
2023-05-23T16:15:13.455Z,2.83
2023-05-23T16:17:40.122Z,3.03
2023-05-23T16:20:07.979Z,3.30
2023-05-23T16:22:34.712Z,2.67
2023-05-23T16:27:33.216Z,3.40
2023-05-23T16:29:59.913Z,3.42
2023-05-23T16:32:28.308Z,3.45
2023-05-23T16:34:55.060Z,3.28
2023-05-23T16:37:21.765Z,3.38
2023-05-23T16:39:48.464Z,3.45
2023-05-23T16:42:15.255Z,3.80
2023-05-23T16:47:13.306Z,4.43
2023-05-23T16:49:39.990Z,4.28
2023-05-23T16:52:06.803Z,4.32
2023-05-23T16:54:33.579Z,4.70
2023-05-23T16:57:02.183Z,4.47
2023-05-23T16:59:30.130Z,4.65
2023-05-23T17:01:57.205Z,4.55
2023-05-23T17:04:24.260Z,3.88
2023-05-23T17:06:51.258Z,3.92
2023-05-23T17:09:18.391Z,3.50
2023-05-23T17:11:45.319Z,3.95
2023-05-23T17:14:12.094Z,4.07
2023-05-23T17:16:39.021Z,3.90
2023-05-23T17:19:05.891Z,3.92
2023-05-23T17:21:33.104Z,4.03
2023-05-23T17:23:59.950Z,3.83
2023-05-23T17:26:27.597Z,3.92
2023-05-23T17:28:54.345Z,4.45
2023-05-23T17:31:21.651Z,4.22
2023-05-23T17:33:48.384Z,4.20
2023-05-23T17:38:54.007Z,3.83
2023-05-23T17:41:23.529Z,4.15
2023-05-23T17:43:50.911Z,4.88
2023-05-23T17:46:17.671Z,3.47
2023-05-23T17:48:46.963Z,3.88
2023-05-23T17:51:15.483Z,3.50
2023-05-23T17:53:42.625Z,3.30
2023-05-23T17:56:09.669Z,3.38
2023-05-23T17:58:41.697Z,3.55
2023-05-23T18:01:11.861Z,2.90
2023-05-23T18:03:39.728Z,3.08
2023-05-23T18:06:07.104Z,2.75
2023-05-23T18:08:34.152Z,2.72
2023-05-23T18:11:00.884Z,2.45
2023-05-23T18:13:27.601Z,2.55
2023-05-23T18:15:54.262Z,1.95
2023-05-23T18:18:21.265Z,1.95
2023-05-23T18:20:58.780Z,2.05
2023-05-23T18:23:25.791Z,2.00
2023-05-23T18:25:52.967Z,1.85
2023-05-23T18:28:19.797Z,1.90
2023-05-23T18:30:46.489Z,2.00
2023-05-23T18:33:13.306Z,1.98
2023-05-23T18:35:40.447Z,1.85
2023-05-23T18:38:07.590Z,2.08
2023-05-23T18:40:34.363Z,2.15
2023-05-23T18:43:01.127Z,2.10
2023-05-23T18:45:27.916Z,1.90
2023-05-23T18:47:55.135Z,1.70
2023-05-23T18:50:21.865Z,1.90
2023-05-23T18:52:48.579Z,1.52
2023-05-23T18:55:16.585Z,1.30
2023-05-23T18:57:43.292Z,1.52
2023-05-23T19:02:48.934Z,1.85
2023-05-23T19:05:15.913Z,1.65
2023-05-23T19:07:42.589Z,1.60
2023-05-23T19:10:09.736Z,1.63
2023-05-23T19:12:36.568Z,1.80
2023-05-23T19:15:03.805Z,1.77
2023-05-23T19:17:31.221Z,1.80
2023-05-23T19:19:58.071Z,1.88
2023-05-23T19:22:25.642Z,1.50
2023-05-23T19:24:54.438Z,1.88
2023-05-23T19:27:21.197Z,1.92
2023-05-23T19:29:47.899Z,1.80
2023-05-23T19:32:14.670Z,1.75
2023-05-23T19:34:41.764Z,1.75
2023-05-23T19:37:08.433Z,2.03
2023-05-23T19:39:35.182Z,1.65
2023-05-23T19:42:01.860Z,1.83
2023-05-23T19:44:28.632Z,1.80
2023-05-23T19:46:55.345Z,1.70
2023-05-23T19:49:22.036Z,1.90
2023-05-23T19:51:49.036Z,1.75
2023-05-23T19:54:15.781Z,1.90
2023-05-23T19:56:42.635Z,1.98
2023-05-23T19:59:09.374Z,1.95
2023-05-23T20:01:36.113Z,1.95
2023-05-23T20:04:02.984Z,2.15
2023-05-23T20:06:29.768Z,1.98
2023-05-23T20:08:56.478Z,2.10
2023-05-23T20:13:56.984Z,2.00
2023-05-23T20:16:23.780Z,2.40
2023-05-23T20:18:50.677Z,2.10
2023-05-23T20:21:17.503Z,2.25
2023-05-23T20:23:45.284Z,2.03
2023-05-23T20:26:12.255Z,2.17
2023-05-23T20:28:38.938Z,1.88
2023-05-23T20:31:05.839Z,2.40
2023-05-23T20:33:34.550Z,2.45
2023-05-23T20:36:01.862Z,2.20
2023-05-23T20:38:29.209Z,1.80
2023-05-23T20:40:55.928Z,2.03
2023-05-23T20:43:22.812Z,1.80
2023-05-23T20:45:49.562Z,2.22
2023-05-23T20:48:16.486Z,2.10
2023-05-23T20:50:44.359Z,1.95
2023-05-23T20:53:11.335Z,2.50
2023-05-23T20:55:38.327Z,2.75
2023-05-23T20:58:05.077Z,2.22
2023-05-23T21:00:31.791Z,2.47
2023-05-23T21:02:58.669Z,2.42
2023-05-23T21:05:25.588Z,2.10
2023-05-23T21:07:52.300Z,2.28
2023-05-23T21:10:19.104Z,3.67
2023-05-23T21:12:50.341Z,2.33
2023-05-23T21:15:17.655Z,2.20
2023-05-23T21:17:44.821Z,2.33
2023-05-23T21:20:12.404Z,2.35
2023-05-23T21:22:39.531Z,2.60
2023-05-23T21:25:06.628Z,2.40
2023-05-23T21:27:33.399Z,2.60
2023-05-23T21:30:00.092Z,2.53
2023-05-23T21:32:26.998Z,2.38
2023-05-23T21:34:53.694Z,2.50
2023-05-23T21:37:20.567Z,2.55
2023-05-23T21:39:51.876Z,2.55
2023-05-23T21:42:19.795Z,2.63
2023-05-23T21:44:46.553Z,2.90
2023-05-23T21:47:13.542Z,2.60
2023-05-23T21:49:40.701Z,2.80
2023-05-23T21:52:07.374Z,2.10
2023-05-23T21:54:34.246Z,2.50
2023-05-23T21:57:00.952Z,3.10
2023-05-23T21:59:27.695Z,3.20
2023-05-23T22:01:54.720Z,3.20
2023-05-23T22:04:21.723Z,2.88
2023-05-23T22:09:19.804Z,2.70
2023-05-23T22:11:46.624Z,2.80
2023-05-23T22:14:13.359Z,2.55
2023-05-23T22:16:40.239Z,2.45
2023-05-23T22:19:09.879Z,2.65
2023-05-23T22:21:37.102Z,2.57
2023-05-23T22:24:04.171Z,2.60
2023-05-23T22:26:31.227Z,2.47
2023-05-23T22:28:57.979Z,2.80
2023-05-23T22:31:24.843Z,2.80
2023-05-23T22:33:51.683Z,2.65
2023-05-23T22:36:18.677Z,3.00
2023-05-23T22:38:45.864Z,2.90
2023-05-23T22:41:12.768Z,2.70
2023-05-23T22:43:39.814Z,2.72
2023-05-23T22:46:07.090Z,2.70
2023-05-23T22:48:34.377Z,2.53
2023-05-23T22:51:04.118Z,2.67
2023-05-23T22:56:04.438Z,2.90
2023-05-23T22:58:31.515Z,2.63
2023-05-23T23:00:58.303Z,2.55
2023-05-23T23:03:25.006Z,2.72
2023-05-23T23:05:51.754Z,2.30
2023-05-23T23:08:19.579Z,2.63
2023-05-23T23:10:46.483Z,2.33
2023-05-23T23:13:14.318Z,2.40
2023-05-23T23:15:42.974Z,2.83
2023-05-23T23:18:10.082Z,3.03
2023-05-23T23:20:37.035Z,3.07
2023-05-23T23:23:03.905Z,2.70
2023-05-23T23:25:30.645Z,2.70
2023-05-23T23:27:57.372Z,2.77
2023-05-23T23:33:01.931Z,2.83
2023-05-23T23:35:28.800Z,2.70
2023-05-23T23:37:55.505Z,2.80
2023-05-23T23:40:22.229Z,2.50
2023-05-23T23:42:48.921Z,2.80
2023-05-23T23:45:15.821Z,2.53
2023-05-23T23:47:43.091Z,2.80
2023-05-23T23:50:09.975Z,2.50
2023-05-23T23:52:39.274Z,2.50
2023-05-23T23:55:06.726Z,2.38
2023-05-23T23:57:33.705Z,2.55
